This is the latest recevied weather packets stored in our database for station/object W3EJE-13. If no packets are shown the sender has not sent any weather packets the latest 1 day(s).
| Time | Temp. | Humidity | Pressure | Rain* | Wind** | Luminosity | Snow |
|---|---|---|---|---|---|---|---|
| 1836274803 | 16.67° C | 99% | 1022.7 hPa | 0 mm | 0 m/s | 0 W/m² | - |
| 1836274501 | 17.22° C | 99% | 1022.8 hPa | 0 mm | 0 m/s | 0 W/m² | - |
| 1836274354 | 16.67° C | 99% | 1022.7 hPa | 0 mm | 0 m/s | 0 W/m² | - |
| 1836274198 | 17.22° C | 99% | 1022.7 hPa | 0 mm | 0 m/s | 0 W/m² | - |
| 1836273892 | 16.67° C | 99% | 1022.6 hPa | 0 mm | 0 m/s | 0 W/m² | - |
| 1778051544 | 13.89° C | 88% | 1009.7 hPa | 0 mm | 0 m/s | 0 W/m² | - |
| 1778051241 | 13.89° C | 88% | 1009.7 hPa | 0 mm | 0 m/s | 0 W/m² | - |
| 1778050938 | 13.89° C | 89% | 1009.8 hPa | 0 mm | 0 m/s | 0 W/m² | - |
| 1778050636 | 13.89° C | 88% | 1009.8 hPa | 0 mm | 0.45 m/s, 223° | 0 W/m² | - |
| 1778050333 | 13.89° C | 88% | 1009.9 hPa | 0 mm | 0 m/s | 0 W/m² | - |
| 1778050029 | 13.89° C | 88% | 1009.9 hPa | 0 mm | 0 m/s | 0 W/m² | - |
| 1778049725 | 13.89° C | 88% | 1010.2 hPa | 0 mm | 0 m/s | 0 W/m² | - |
| 1778049423 | 13.89° C | 87% | 1010.3 hPa | 0 mm | 0 m/s | 0 W/m² | - |
| 1778049120 | 13.89° C | 87% | 1010.2 hPa | 0 mm | 0 m/s | 0 W/m² | - |
| 1778048818 | 13.89° C | 87% | 1010.3 hPa | 0 mm | 0 m/s | 0 W/m² | - |
| 1778048514 | 13.89° C | 88% | 1010.5 hPa | 0 mm | 0 m/s | 0 W/m² | - |
| 1778048210 | 13.89° C | 87% | 1010.5 hPa | 0 mm | 0 m/s | 0 W/m² | - |
| 1778047908 | 13.89° C | 87% | 1010.5 hPa | 0 mm | 0 m/s | 0 W/m² | - |
| 1778047607 | 14.44° C | 85% | 1010.5 hPa | 0 mm | 0.45 m/s, 224° | 0 W/m² | - |
| 1778047303 | 14.44° C | 84% | 1010.6 hPa | 0 mm | 0 m/s | 0 W/m² | - |
| 1778047001 | 14.44° C | 83% | 1010.7 hPa | 0 mm | 0 m/s | 0 W/m² | - |
| 1778046697 | 14.44° C | 83% | 1010.7 hPa | 0 mm | 0 m/s | 0 W/m² | - |
| 1778046394 | 13.89° C | 85% | 1010.7 hPa | 0 mm | 0 m/s | 0 W/m² | - |
| 1778046090 | 13.89° C | 86% | 1010.8 hPa | 0 mm | 0 m/s | 0 W/m² | - |
| 1778045788 | 13.89° C | 87% | 1010.8 hPa | 0 mm | 0 m/s | 0 W/m² | - |
* Rain latest hour (hover to see other rain measurements)
** Current wind speed in m/s (hover to see current wind gust speed)